createdAt,value
2024-02-13T00:00:48.414Z,52.50
2024-02-13T00:03:15.870Z,52.50
2024-02-13T00:05:44.326Z,52.50
2024-02-13T00:08:14.159Z,52.50
2024-02-13T00:10:41.354Z,52.50
2024-02-13T00:13:08.110Z,52.60
2024-02-13T00:15:39.029Z,52.50
2024-02-13T00:18:08.376Z,52.50
2024-02-13T00:20:35.412Z,52.50
2024-02-13T00:23:02.272Z,52.50
2024-02-13T00:25:29.596Z,52.50
2024-02-13T00:27:56.789Z,52.60
2024-02-13T00:30:24.686Z,52.50
2024-02-13T00:32:51.398Z,52.50
2024-02-13T00:35:18.202Z,52.50
2024-02-13T00:37:44.865Z,52.50
2024-02-13T00:40:11.886Z,52.40
2024-02-13T00:42:39.072Z,52.40
2024-02-13T00:45:08.278Z,52.50
2024-02-13T00:47:35.561Z,52.50
2024-02-13T00:50:03.153Z,52.50
2024-02-13T00:52:29.949Z,52.40
2024-02-13T00:54:57.435Z,52.50
2024-02-13T00:57:25.404Z,52.50
2024-02-13T00:59:52.791Z,52.50
2024-02-13T01:02:19.635Z,52.50
2024-02-13T01:04:46.357Z,52.50
2024-02-13T01:07:13.151Z,52.50
2024-02-13T01:09:39.822Z,52.50
2024-02-13T01:12:12.428Z,52.50
2024-02-13T01:14:39.949Z,52.50
2024-02-13T01:17:06.688Z,52.50
2024-02-13T01:19:33.662Z,52.40
2024-02-13T01:22:01.885Z,52.40
2024-02-13T01:26:56.314Z,52.40
2024-02-13T01:29:23.994Z,52.40
2024-02-13T01:31:50.967Z,52.40
2024-02-13T01:34:17.803Z,52.40
2024-02-13T01:39:13.070Z,52.40
2024-02-13T01:41:39.771Z,52.40
2024-02-13T01:44:06.404Z,52.40
2024-02-13T01:46:36.245Z,52.50
2024-02-13T01:49:04.726Z,52.40
2024-02-13T01:51:35.355Z,52.30
2024-02-13T01:54:05.669Z,52.30
2024-02-13T01:56:34.626Z,52.30
2024-02-13T01:59:02.319Z,52.40
2024-02-13T02:01:30.732Z,52.40
2024-02-13T02:04:00.628Z,52.40
2024-02-13T02:06:27.847Z,52.40
2024-02-13T02:08:54.974Z,52.40
2024-02-13T02:16:17.199Z,52.40
2024-02-13T02:18:44.446Z,52.40
2024-02-13T02:21:12.734Z,52.40
2024-02-13T02:23:39.472Z,52.40
2024-02-13T02:26:07.907Z,52.40
2024-02-13T02:28:35.679Z,52.40
2024-02-13T02:31:03.747Z,52.40
2024-02-13T02:33:31.544Z,52.40
2024-02-13T02:35:58.385Z,52.40
2024-02-13T02:38:25.063Z,52.40
2024-02-13T02:40:51.688Z,52.30
2024-02-13T02:43:18.371Z,52.30
2024-02-13T02:45:46.256Z,52.30
2024-02-13T02:48:15.529Z,52.30
2024-02-13T02:50:43.161Z,52.30
2024-02-13T02:53:10.074Z,52.30
2024-02-13T02:55:36.760Z,52.30
2024-02-13T02:58:03.572Z,52.30
2024-02-13T03:00:30.437Z,52.30
2024-02-13T03:02:57.318Z,52.30
2024-02-13T03:05:24.244Z,52.40
2024-02-13T03:07:50.961Z,52.30
2024-02-13T03:10:17.744Z,52.40
2024-02-13T03:12:45.160Z,52.30
2024-02-13T03:15:13.567Z,52.40
2024-02-13T03:17:40.794Z,52.40
2024-02-13T03:20:11.297Z,52.40
2024-02-13T03:22:38.759Z,52.40
2024-02-13T03:25:06.552Z,52.30
2024-02-13T03:27:33.330Z,52.30
2024-02-13T03:30:00.215Z,52.40
2024-02-13T03:32:27.335Z,52.40
2024-02-13T03:34:54.898Z,52.40
2024-02-13T03:37:21.761Z,52.40
2024-02-13T03:39:48.680Z,52.30
2024-02-13T03:42:16.920Z,52.30
2024-02-13T03:44:43.699Z,52.30
2024-02-13T03:47:10.513Z,52.30
2024-02-13T03:49:37.352Z,52.30
2024-02-13T03:52:04.310Z,52.40
2024-02-13T03:54:30.997Z,52.30
2024-02-13T03:57:01.345Z,52.30
2024-02-13T03:59:30.391Z,52.80
2024-02-13T04:01:57.316Z,52.40
2024-02-13T04:04:24.052Z,52.40
2024-02-13T04:06:50.799Z,52.30
2024-02-13T04:09:17.472Z,52.30
2024-02-13T04:11:46.506Z,52.30
2024-02-13T04:14:13.906Z,52.30
2024-02-13T04:16:42.268Z,52.30
2024-02-13T04:19:09.098Z,52.30
2024-02-13T04:21:35.957Z,52.30
2024-02-13T04:24:03.893Z,52.30
2024-02-13T04:26:36.473Z,52.30
2024-02-13T04:29:04.697Z,52.30
2024-02-13T04:31:31.392Z,52.30
2024-02-13T04:33:58.178Z,52.30
2024-02-13T04:36:25.159Z,52.20
2024-02-13T04:38:51.902Z,52.30
2024-02-13T04:41:20.345Z,52.30
2024-02-13T04:43:47.367Z,52.30
2024-02-13T04:46:14.183Z,52.30
2024-02-13T04:48:41.029Z,52.30
2024-02-13T04:51:07.851Z,52.30
2024-02-13T04:53:34.634Z,52.20
2024-02-13T04:56:01.465Z,52.30
2024-02-13T04:58:31.786Z,52.30
2024-02-13T05:01:03.450Z,52.30
2024-02-13T05:03:51.543Z,52.20
2024-02-13T05:06:36.896Z,52.30
2024-02-13T05:11:32.291Z,52.20
2024-02-13T05:14:03.451Z,52.20
2024-02-13T05:16:30.834Z,52.20
2024-02-13T05:18:57.702Z,52.20
2024-02-13T05:21:25.151Z,52.20
2024-02-13T05:23:52.416Z,52.20
2024-02-13T05:26:19.634Z,52.20
2024-02-13T05:28:47.392Z,52.20
2024-02-13T05:31:14.313Z,52.20
2024-02-13T05:33:41.104Z,52.20
2024-02-13T05:36:10.911Z,52.20
2024-02-13T05:38:44.063Z,52.20
2024-02-13T05:41:11.647Z,52.10
2024-02-13T05:43:41.165Z,52.10
2024-02-13T05:46:07.977Z,52.10
2024-02-13T05:48:36.900Z,52.10
2024-02-13T05:51:06.669Z,52.10
2024-02-13T05:53:34.236Z,52.10
2024-02-13T05:56:01.637Z,52.10
2024-02-13T05:58:29.790Z,52.10
2024-02-13T06:00:58.262Z,52.70
2024-02-13T06:03:25.718Z,52.10
2024-02-13T06:05:55.507Z,52.10
2024-02-13T06:08:22.791Z,52.10
2024-02-13T06:10:49.562Z,52.10
2024-02-13T06:13:16.324Z,52.10
2024-02-13T06:15:43.026Z,52.10
2024-02-13T06:18:09.887Z,52.10
2024-02-13T06:20:36.976Z,52.10
2024-02-13T06:23:04.070Z,52.20
2024-02-13T06:25:31.318Z,52.20
2024-02-13T06:27:58.084Z,52.20
2024-02-13T06:30:24.767Z,52.20
2024-02-13T06:32:52.655Z,52.20
2024-02-13T06:35:19.896Z,52.10
2024-02-13T06:37:47.564Z,52.00
2024-02-13T06:40:14.634Z,52.00
2024-02-13T06:42:42.013Z,52.00
2024-02-13T06:45:11.083Z,52.00
2024-02-13T06:47:38.427Z,52.00
2024-02-13T06:50:12.289Z,51.90
2024-02-13T06:52:39.838Z,52.00
2024-02-13T06:55:09.060Z,51.90
2024-02-13T06:57:36.737Z,51.90
2024-02-13T07:00:14.334Z,51.90
2024-02-13T07:02:44.784Z,51.90
2024-02-13T07:05:12.368Z,51.80
2024-02-13T07:07:46.656Z,51.80
2024-02-13T07:10:16.722Z,51.70
2024-02-13T07:12:44.725Z,51.70
2024-02-13T07:15:11.659Z,51.80
2024-02-13T07:17:48.644Z,51.70
2024-02-13T07:20:23.650Z,51.70
2024-02-13T07:22:50.627Z,51.70
2024-02-13T07:25:17.360Z,51.70
2024-02-13T07:27:44.170Z,51.60
2024-02-13T07:30:15.551Z,51.60
2024-02-13T07:32:43.176Z,51.60
2024-02-13T07:35:10.452Z,51.60
2024-02-13T07:37:37.501Z,51.50
2024-02-13T07:40:04.897Z,51.40
2024-02-13T07:42:31.681Z,51.50
2024-02-13T07:44:59.332Z,51.50
2024-02-13T07:47:27.629Z,51.50
2024-02-13T07:50:01.018Z,51.50
2024-02-13T07:52:28.627Z,51.50
2024-02-13T07:54:55.279Z,51.50
2024-02-13T07:57:22.527Z,51.50
2024-02-13T07:59:56.077Z,51.50
2024-02-13T08:02:24.381Z,51.50
2024-02-13T08:04:52.480Z,51.50
2024-02-13T08:07:19.259Z,51.50
2024-02-13T08:09:46.680Z,51.50
2024-02-13T08:12:13.703Z,51.50
2024-02-13T08:14:40.738Z,51.50
2024-02-13T08:17:09.369Z,51.60
2024-02-13T08:19:41.406Z,51.50
2024-02-13T08:22:08.741Z,51.50
2024-02-13T08:24:36.528Z,51.60
2024-02-13T08:27:03.344Z,51.50
2024-02-13T08:29:31.777Z,51.50
2024-02-13T08:31:58.909Z,51.50
2024-02-13T08:34:26.164Z,51.50
2024-02-13T08:36:54.243Z,51.50
2024-02-13T08:39:21.620Z,51.40
2024-02-13T08:41:48.403Z,51.50
2024-02-13T08:44:17.354Z,51.50
2024-02-13T08:46:44.087Z,51.40
2024-02-13T08:49:11.058Z,51.30
2024-02-13T08:51:38.646Z,51.30
2024-02-13T08:54:05.938Z,51.40
2024-02-13T08:56:33.687Z,51.30
2024-02-13T08:59:01.985Z,51.40
2024-02-13T09:03:57.726Z,51.50
2024-02-13T09:06:24.441Z,51.40
2024-02-13T09:08:51.132Z,51.50
2024-02-13T09:11:17.846Z,51.50
2024-02-13T09:13:46.052Z,51.40
2024-02-13T09:16:13.931Z,51.50
2024-02-13T09:18:42.243Z,51.50
2024-02-13T09:21:11.020Z,51.40
2024-02-13T09:23:37.920Z,51.40
2024-02-13T09:26:05.326Z,51.30
2024-02-13T09:28:32.415Z,51.40
2024-02-13T09:30:59.392Z,51.40
2024-02-13T09:33:27.210Z,51.40
2024-02-13T09:35:55.064Z,51.40
2024-02-13T09:38:23.034Z,51.40
2024-02-13T09:40:51.011Z,51.40
2024-02-13T09:43:19.004Z,51.40
2024-02-13T09:45:46.351Z,51.40
2024-02-13T09:48:24.637Z,51.40
2024-02-13T09:50:57.039Z,51.40
2024-02-13T09:53:28.855Z,51.40
2024-02-13T09:55:59.797Z,51.30
2024-02-13T09:58:27.969Z,51.30
2024-02-13T10:00:58.582Z,51.30
2024-02-13T10:03:28.225Z,51.30
2024-02-13T10:05:55.390Z,51.30
2024-02-13T10:08:28.257Z,51.30
2024-02-13T10:11:02.932Z,51.40
2024-02-13T10:13:45.202Z,51.40
2024-02-13T10:16:25.051Z,51.30
2024-02-13T10:18:53.236Z,51.40
2024-02-13T10:21:20.799Z,51.90
2024-02-13T10:23:48.988Z,51.30
2024-02-13T10:26:16.780Z,51.30
2024-02-13T10:28:45.169Z,51.30
2024-02-13T10:31:11.891Z,51.90
2024-02-13T10:33:42.921Z,51.20
2024-02-13T10:36:10.695Z,51.30
2024-02-13T10:38:38.298Z,51.20
2024-02-13T10:41:20.666Z,51.30
2024-02-13T10:43:51.605Z,51.30
2024-02-13T10:46:24.544Z,51.30
2024-02-13T10:49:06.758Z,51.40
2024-02-13T10:51:35.865Z,51.40
2024-02-13T10:54:05.962Z,51.40
2024-02-13T10:56:36.990Z,51.40
2024-02-13T10:59:04.444Z,51.30
2024-02-13T11:01:36.021Z,51.30
2024-02-13T11:04:03.809Z,51.40
2024-02-13T11:06:31.489Z,51.30
2024-02-13T11:08:58.328Z,51.30
2024-02-13T11:11:26.928Z,51.20
2024-02-13T11:13:53.795Z,51.30
2024-02-13T11:16:21.593Z,51.30
2024-02-13T11:18:49.886Z,51.30
2024-02-13T11:21:26.226Z,51.30
2024-02-13T11:23:58.373Z,51.30
2024-02-13T11:26:32.110Z,51.30
2024-02-13T11:34:23.279Z,51.30
2024-02-13T11:36:50.279Z,51.30
2024-02-13T11:39:18.394Z,51.20
2024-02-13T11:41:45.103Z,51.30
2024-02-13T11:44:13.431Z,51.30
2024-02-13T11:46:41.311Z,51.30
2024-02-13T11:49:11.957Z,51.30
2024-02-13T11:51:39.796Z,51.30
2024-02-13T11:54:07.484Z,51.30
2024-02-13T11:56:36.592Z,51.30
2024-02-13T11:59:06.620Z,51.30
2024-02-13T12:01:39.771Z,51.30
2024-02-13T12:04:08.946Z,51.20
2024-02-13T12:06:35.906Z,51.30
2024-02-13T12:09:03.861Z,51.30
2024-02-13T12:11:31.433Z,51.30
2024-02-13T12:13:58.686Z,51.30
2024-02-13T12:16:25.679Z,51.40
2024-02-13T12:18:53.187Z,51.40
2024-02-13T12:21:20.181Z,51.40
2024-02-13T12:23:47.490Z,51.40
2024-02-13T12:26:17.849Z,51.40
2024-02-13T12:28:58.752Z,51.30
2024-02-13T12:31:28.824Z,51.40
2024-02-13T12:34:03.422Z,51.40
2024-02-13T12:36:30.298Z,51.30
2024-02-13T12:39:21.942Z,51.30
2024-02-13T12:41:52.490Z,51.30
2024-02-13T12:44:21.431Z,51.30
2024-02-13T12:46:49.470Z,51.20
2024-02-13T12:49:17.837Z,51.40
2024-02-13T12:51:45.652Z,51.30
2024-02-13T12:54:13.029Z,51.30
2024-02-13T12:56:41.634Z,51.30
2024-02-13T12:59:13.529Z,51.80
2024-02-13T13:01:45.587Z,51.20
2024-02-13T13:04:16.942Z,51.80
2024-02-13T13:06:45.667Z,51.30
2024-02-13T13:09:23.158Z,51.30
2024-02-13T13:11:54.763Z,51.20
2024-02-13T13:14:21.944Z,51.20
2024-02-13T13:16:48.907Z,51.10
2024-02-13T13:19:16.070Z,51.60
2024-02-13T13:21:43.721Z,51.20
2024-02-13T13:24:12.187Z,51.80
2024-02-13T13:26:42.847Z,51.20
2024-02-13T13:29:10.628Z,51.10
2024-02-13T13:31:40.174Z,51.10
2024-02-13T13:34:09.413Z,51.10
2024-02-13T13:36:36.825Z,51.10
2024-02-13T13:39:07.450Z,51.10
2024-02-13T13:41:36.613Z,51.10
2024-02-13T13:44:03.783Z,51.00
2024-02-13T13:46:32.589Z,51.00
2024-02-13T13:49:02.507Z,50.90
2024-02-13T13:51:29.810Z,51.00
2024-02-13T13:53:57.224Z,51.50
2024-02-13T13:56:24.490Z,51.10
2024-02-13T13:58:52.198Z,51.10
2024-02-13T14:01:19.438Z,50.90
2024-02-13T14:03:46.249Z,50.90
2024-02-13T14:06:13.050Z,50.90
2024-02-13T14:08:40.058Z,50.90
2024-02-13T14:11:07.788Z,50.90
2024-02-13T14:13:35.108Z,50.80
2024-02-13T14:16:01.949Z,50.80
2024-02-13T14:18:29.662Z,50.70
2024-02-13T14:20:56.934Z,50.70
2024-02-13T14:23:24.476Z,50.70
2024-02-13T14:25:51.682Z,50.60
2024-02-13T14:28:19.109Z,50.60
2024-02-13T14:30:47.048Z,50.70
2024-02-13T14:33:14.466Z,51.10
2024-02-13T14:35:43.263Z,50.60
2024-02-13T14:38:10.094Z,50.60
2024-02-13T14:40:40.740Z,50.50
2024-02-13T14:43:10.691Z,50.60
2024-02-13T14:45:40.714Z,50.60
2024-02-13T14:48:14.188Z,50.60
2024-02-13T14:50:41.676Z,50.60
2024-02-13T14:53:09.648Z,50.60
2024-02-13T14:55:36.836Z,50.70
2024-02-13T14:58:14.516Z,50.80
2024-02-13T15:03:21.397Z,50.80
2024-02-13T15:05:48.181Z,50.80
2024-02-13T15:08:16.969Z,50.80
2024-02-13T15:10:45.152Z,50.80
2024-02-13T15:13:13.933Z,50.90
2024-02-13T15:15:40.597Z,50.90
2024-02-13T15:18:08.217Z,50.90
2024-02-13T15:20:36.384Z,51.00
2024-02-13T15:25:31.732Z,51.00
2024-02-13T15:27:58.934Z,50.90
2024-02-13T15:30:26.817Z,50.90
2024-02-13T15:32:53.595Z,51.00
2024-02-13T15:35:25.642Z,50.90
2024-02-13T15:38:11.182Z,51.00
2024-02-13T15:40:56.684Z,51.00
2024-02-13T15:43:41.980Z,51.00
2024-02-13T15:46:27.609Z,51.00
2024-02-13T15:48:54.711Z,51.10
2024-02-13T15:51:24.668Z,51.10
2024-02-13T15:53:51.810Z,51.20
2024-02-13T15:56:19.432Z,51.10
2024-02-13T15:58:46.085Z,51.20
2024-02-13T16:03:45.516Z,51.10
2024-02-13T16:06:12.634Z,51.10
2024-02-13T16:08:39.765Z,51.10
2024-02-13T16:11:07.295Z,51.10
2024-02-13T16:13:34.016Z,51.00
2024-02-13T16:16:02.826Z,51.10
2024-02-13T16:18:29.699Z,51.00
2024-02-13T16:20:56.521Z,51.00
2024-02-13T16:23:23.206Z,51.10
2024-02-13T16:25:49.910Z,51.10
2024-02-13T16:28:16.615Z,51.10
2024-02-13T16:30:45.029Z,51.10
2024-02-13T16:33:13.774Z,51.20
2024-02-13T16:35:40.618Z,51.20
2024-02-13T16:38:07.629Z,51.30
2024-02-13T16:40:34.858Z,51.20
2024-02-13T16:43:05.154Z,51.20
2024-02-13T16:45:32.349Z,51.20
2024-02-13T16:47:59.746Z,51.20
2024-02-13T16:50:28.941Z,51.30
2024-02-13T16:52:55.900Z,51.40
2024-02-13T16:55:25.501Z,51.30
2024-02-13T16:57:53.143Z,51.30
2024-02-13T17:00:22.730Z,51.40
2024-02-13T17:02:50.301Z,51.50
2024-02-13T17:05:19.061Z,51.40
2024-02-13T17:07:46.627Z,51.40
2024-02-13T17:10:13.526Z,51.40
2024-02-13T17:12:41.138Z,51.30
2024-02-13T17:15:08.917Z,51.30
2024-02-13T17:17:35.918Z,51.30
2024-02-13T17:20:04.966Z,51.30
2024-02-13T17:22:31.814Z,51.30
2024-02-13T17:24:58.567Z,51.30
2024-02-13T17:27:25.519Z,51.30
2024-02-13T17:29:52.863Z,51.30
2024-02-13T17:32:19.603Z,51.40
2024-02-13T17:34:46.321Z,51.30
2024-02-13T17:37:13.068Z,51.40
2024-02-13T17:39:40.656Z,51.40
2024-02-13T17:42:07.470Z,51.40
2024-02-13T17:44:34.509Z,51.40
2024-02-13T17:47:01.192Z,51.30
2024-02-13T17:49:27.866Z,51.40
2024-02-13T17:51:54.603Z,51.40
2024-02-13T17:54:24.443Z,51.40
2024-02-13T17:56:51.644Z,51.40
2024-02-13T17:59:18.485Z,51.40
2024-02-13T18:01:53.192Z,51.40
2024-02-13T18:04:22.096Z,51.50
2024-02-13T18:06:49.913Z,51.40
2024-02-13T18:09:16.636Z,51.40
2024-02-13T18:11:43.563Z,51.40
2024-02-13T18:14:13.466Z,51.40
2024-02-13T18:16:41.525Z,51.30
2024-02-13T18:19:09.271Z,51.40
2024-02-13T18:24:05.829Z,51.30
2024-02-13T18:26:32.608Z,51.40
2024-02-13T18:28:59.302Z,51.40
2024-02-13T18:31:26.157Z,51.40
2024-02-13T18:33:53.118Z,51.40
2024-02-13T18:36:20.679Z,51.40
2024-02-13T18:38:49.096Z,51.40
2024-02-13T18:41:17.456Z,51.40
2024-02-13T18:43:45.281Z,51.90
2024-02-13T18:46:12.068Z,51.40
2024-02-13T18:48:39.601Z,51.40
2024-02-13T18:51:06.513Z,51.40
2024-02-13T18:53:33.410Z,51.40
2024-02-13T18:56:00.774Z,51.40
2024-02-13T18:58:32.553Z,51.40
2024-02-13T19:00:59.377Z,51.40
2024-02-13T19:03:26.105Z,51.40
2024-02-13T19:05:52.901Z,51.40
2024-02-13T19:08:19.945Z,51.40
2024-02-13T19:10:49.176Z,51.90
2024-02-13T19:13:16.681Z,51.40
2024-02-13T19:15:43.500Z,51.40
2024-02-13T19:18:10.833Z,51.40
2024-02-13T19:23:06.624Z,51.30
2024-02-13T19:25:34.150Z,51.30
2024-02-13T19:28:00.823Z,51.30
2024-02-13T19:30:31.988Z,51.30
2024-02-13T19:32:59.750Z,51.80
2024-02-13T19:35:27.747Z,51.30
2024-02-13T19:37:54.432Z,51.30
2024-02-13T19:40:21.805Z,51.30
2024-02-13T19:42:49.653Z,51.30
2024-02-13T19:45:16.314Z,51.80
2024-02-13T19:47:43.586Z,51.20
2024-02-13T19:50:10.581Z,51.20
2024-02-13T19:52:37.602Z,51.20
2024-02-13T19:55:06.669Z,51.20
2024-02-13T19:57:34.685Z,51.30
2024-02-13T20:00:03.680Z,51.20
2024-02-13T20:02:32.044Z,51.20
2024-02-13T20:04:58.868Z,51.20
2024-02-13T20:07:25.580Z,51.20
2024-02-13T20:09:52.311Z,51.20
2024-02-13T20:12:21.113Z,51.70
2024-02-13T20:14:48.208Z,51.20
2024-02-13T20:17:15.972Z,51.20
2024-02-13T20:19:42.984Z,51.20
2024-02-13T20:22:09.614Z,51.30
2024-02-13T20:24:38.625Z,51.20
2024-02-13T20:27:05.573Z,51.20
2024-02-13T20:29:32.368Z,51.20
2024-02-13T20:31:59.536Z,51.20
2024-02-13T20:34:29.592Z,51.20
2024-02-13T20:36:59.857Z,51.20
2024-02-13T20:39:27.193Z,51.30
2024-02-13T20:41:57.621Z,51.20
2024-02-13T20:44:24.510Z,51.80
2024-02-13T20:46:54.262Z,51.20
2024-02-13T20:49:20.944Z,51.20
2024-02-13T20:51:48.243Z,51.20
2024-02-13T20:54:17.959Z,51.20
2024-02-13T20:56:48.234Z,51.20
2024-02-13T20:59:15.488Z,51.20
2024-02-13T21:01:42.683Z,51.20
2024-02-13T21:04:10.323Z,51.30
2024-02-13T21:06:41.260Z,51.20
2024-02-13T21:09:10.887Z,51.20
2024-02-13T21:11:37.955Z,51.20
2024-02-13T21:14:05.271Z,51.30
2024-02-13T21:16:34.149Z,51.10
2024-02-13T21:19:01.657Z,51.30
2024-02-13T21:21:47.412Z,51.20
2024-02-13T21:24:14.327Z,51.20
2024-02-13T21:26:41.260Z,51.20
2024-02-13T21:29:08.535Z,51.30
2024-02-13T21:31:36.000Z,51.30
2024-02-13T21:34:06.686Z,51.30
2024-02-13T21:36:36.721Z,51.30
2024-02-13T21:39:08.905Z,51.40
2024-02-13T21:41:36.776Z,51.30
2024-02-13T21:44:04.233Z,51.30
2024-02-13T21:46:31.332Z,51.30
2024-02-13T21:48:58.245Z,51.30
2024-02-13T21:51:25.169Z,51.40
2024-02-13T21:53:51.893Z,51.80
2024-02-13T21:56:19.594Z,51.40
2024-02-13T21:58:46.813Z,51.40
2024-02-13T22:01:13.619Z,51.40
2024-02-13T22:03:41.354Z,51.30
2024-02-13T22:06:13.080Z,51.30
2024-02-13T22:13:35.791Z,51.30
2024-02-13T22:16:02.696Z,51.30
2024-02-13T22:20:58.545Z,51.30
2024-02-13T22:23:25.752Z,51.30
2024-02-13T22:25:52.728Z,51.30
2024-02-13T22:30:47.218Z,51.30
2024-02-13T22:33:14.071Z,51.30
2024-02-13T22:35:41.862Z,51.30
2024-02-13T22:38:08.648Z,51.70
2024-02-13T22:40:35.418Z,51.30
2024-02-13T22:43:04.559Z,51.70
2024-02-13T22:45:33.987Z,51.30
2024-02-13T22:48:02.591Z,51.30
2024-02-13T22:50:29.820Z,51.30
2024-02-13T22:52:59.176Z,51.30
2024-02-13T22:55:28.236Z,51.30
2024-02-13T22:57:55.048Z,51.30
2024-02-13T23:00:40.676Z,51.30
2024-02-13T23:03:08.040Z,51.30
2024-02-13T23:05:35.087Z,51.30
2024-02-13T23:08:06.008Z,51.30
2024-02-13T23:10:32.740Z,51.30
2024-02-13T23:12:59.534Z,51.70
2024-02-13T23:15:26.734Z,51.30
2024-02-13T23:17:53.658Z,51.30
2024-02-13T23:20:22.275Z,51.20
2024-02-13T23:22:50.589Z,51.20
2024-02-13T23:25:18.297Z,51.20
2024-02-13T23:27:44.947Z,51.20
2024-02-13T23:30:12.259Z,51.60
2024-02-13T23:32:39.452Z,51.20
2024-02-13T23:35:06.931Z,51.60
2024-02-13T23:37:37.038Z,51.20
2024-02-13T23:40:16.974Z,51.20
2024-02-13T23:42:48.125Z,51.20
2024-02-13T23:45:14.884Z,51.20
2024-02-13T23:47:43.798Z,51.20
2024-02-13T23:50:11.780Z,51.20
2024-02-13T23:52:42.336Z,51.20
2024-02-13T23:55:10.404Z,51.60
2024-02-13T23:57:41.582Z,51.20
